Airport View

Enter AWOS ICAO identifier for current METAR.

ex. KFNL

KVQQ 250040Z AUTO 00000KT 10SM FEW025 SCT031 26/21 A2999 RMK AO2

25 May 2020 00:48

Frequency: 125.275

Phone: 904-778-6934

Other Area AWOS: KHEG - KNIP - KJAX - KCRG

TAF KVQQ 242320Z 2500/2524 09007KT P6SM SCT035 BKN200 FM251400 10009KT P6SM VCSH SCT030 OVC070 FM251800 10015G22KT P6SM VCTS SCT025 OVC035CB